sensor_id;sensor_type;location;lat;lon;timestamp;P1;durP1;ratioP1;P2;durP2;ratioP2
42018;SDS011;27703;51.980;5.848;2023-01-26T00:02:07;135.02;;;42.50;;
42018;SDS011;27703;51.980;5.848;2023-01-26T00:04:32;144.63;;;42.83;;
42018;SDS011;27703;51.980;5.848;2023-01-26T00:06:58;134.15;;;42.03;;
42018;SDS011;27703;51.980;5.848;2023-01-26T00:09:23;131.57;;;44.80;;
42018;SDS011;27703;51.980;5.848;2023-01-26T00:11:49;146.48;;;44.75;;
42018;SDS011;27703;51.980;5.848;2023-01-26T00:14:14;132.18;;;42.05;;
42018;SDS011;27703;51.980;5.848;2023-01-26T00:16:40;144.85;;;43.70;;
42018;SDS011;27703;51.980;5.848;2023-01-26T00:19:05;136.48;;;43.22;;
42018;SDS011;27703;51.980;5.848;2023-01-26T00:21:31;136.82;;;42.28;;
42018;SDS011;27703;51.980;5.848;2023-01-26T00:23:57;137.10;;;42.13;;
42018;SDS011;27703;51.980;5.848;2023-01-26T00:26:23;136.05;;;41.72;;
42018;SDS011;27703;51.980;5.848;2023-01-26T00:28:51;134.50;;;41.72;;
42018;SDS011;27703;51.980;5.848;2023-01-26T00:31:18;139.68;;;43.83;;
42018;SDS011;27703;51.980;5.848;2023-01-26T00:33:48;131.88;;;43.08;;
42018;SDS011;27703;51.980;5.848;2023-01-26T00:36:14;159.65;;;46.95;;
42018;SDS011;27703;51.980;5.848;2023-01-26T00:38:40;143.60;;;44.05;;
42018;SDS011;27703;51.980;5.848;2023-01-26T00:41:06;155.52;;;48.22;;
42018;SDS011;27703;51.980;5.848;2023-01-26T00:43:32;151.20;;;44.65;;
42018;SDS011;27703;51.980;5.848;2023-01-26T00:45:58;153.15;;;46.58;;
42018;SDS011;27703;51.980;5.848;2023-01-26T00:48:23;137.35;;;42.70;;
42018;SDS011;27703;51.980;5.848;2023-01-26T00:50:49;151.05;;;45.13;;
42018;SDS011;27703;51.980;5.848;2023-01-26T00:53:16;136.98;;;43.55;;
42018;SDS011;27703;51.980;5.848;2023-01-26T00:55:41;139.00;;;43.30;;
42018;SDS011;27703;51.980;5.848;2023-01-26T00:58:07;140.88;;;44.15;;
42018;SDS011;27703;51.980;5.848;2023-01-26T01:00:34;141.40;;;43.63;;
42018;SDS011;27703;51.980;5.848;2023-01-26T01:03:01;132.35;;;43.00;;
42018;SDS011;27703;51.980;5.848;2023-01-26T01:05:28;137.30;;;41.90;;
42018;SDS011;27703;51.980;5.848;2023-01-26T01:07:55;138.05;;;43.53;;
42018;SDS011;27703;51.980;5.848;2023-01-26T01:10:21;127.50;;;39.22;;
42018;SDS011;27703;51.980;5.848;2023-01-26T01:12:47;143.00;;;44.20;;
42018;SDS011;27703;51.980;5.848;2023-01-26T01:15:12;131.63;;;40.42;;
42018;SDS011;27703;51.980;5.848;2023-01-26T01:17:39;132.30;;;39.97;;
42018;SDS011;27703;51.980;5.848;2023-01-26T01:20:05;137.55;;;43.10;;
42018;SDS011;27703;51.980;5.848;2023-01-26T01:22:31;130.68;;;42.65;;
42018;SDS011;27703;51.980;5.848;2023-01-26T01:24:58;120.75;;;38.33;;
42018;SDS011;27703;51.980;5.848;2023-01-26T01:27:23;131.65;;;40.30;;
42018;SDS011;27703;51.980;5.848;2023-01-26T01:29:49;125.50;;;39.30;;
42018;SDS011;27703;51.980;5.848;2023-01-26T01:32:16;132.15;;;40.67;;
42018;SDS011;27703;51.980;5.848;2023-01-26T01:34:41;113.20;;;38.33;;
42018;SDS011;27703;51.980;5.848;2023-01-26T01:37:07;113.03;;;34.97;;
42018;SDS011;27703;51.980;5.848;2023-01-26T01:39:33;122.95;;;38.08;;
42018;SDS011;27703;51.980;5.848;2023-01-26T01:41:58;120.65;;;38.47;;
42018;SDS011;27703;51.980;5.848;2023-01-26T01:44:24;105.18;;;35.45;;
42018;SDS011;27703;51.980;5.848;2023-01-26T01:46:54;110.30;;;35.40;;
42018;SDS011;27703;51.980;5.848;2023-01-26T01:49:29;125.55;;;38.58;;
42018;SDS011;27703;51.980;5.848;2023-01-26T01:54:36;118.05;;;35.72;;
42018;SDS011;27703;51.980;5.848;2023-01-26T01:57:04;104.50;;;33.17;;
42018;SDS011;27703;51.980;5.848;2023-01-26T01:59:39;106.18;;;30.75;;
42018;SDS011;27703;51.980;5.848;2023-01-26T02:02:07;107.38;;;35.70;;
42018;SDS011;27703;51.980;5.848;2023-01-26T02:04:34;102.85;;;31.85;;
42018;SDS011;27703;51.980;5.848;2023-01-26T02:07:00;109.50;;;33.90;;
42018;SDS011;27703;51.980;5.848;2023-01-26T02:09:28;98.43;;;31.63;;
42018;SDS011;27703;51.980;5.848;2023-01-26T02:12:16;92.68;;;30.60;;
42018;SDS011;27703;51.980;5.848;2023-01-26T02:14:45;93.03;;;29.80;;
42018;SDS011;27703;51.980;5.848;2023-01-26T02:17:11;106.10;;;34.60;;
42018;SDS011;27703;51.980;5.848;2023-01-26T02:25:39;92.93;;;27.88;;
42018;SDS011;27703;51.980;5.848;2023-01-26T02:28:13;93.80;;;30.08;;
42018;SDS011;27703;51.980;5.848;2023-01-26T02:30:39;95.60;;;29.67;;
42018;SDS011;27703;51.980;5.848;2023-01-26T02:33:04;91.75;;;29.70;;
42018;SDS011;27703;51.980;5.848;2023-01-26T02:35:30;90.85;;;28.05;;
42018;SDS011;27703;51.980;5.848;2023-01-26T02:37:55;101.63;;;31.20;;
42018;SDS011;27703;51.980;5.848;2023-01-26T02:40:29;92.72;;;28.83;;
42018;SDS011;27703;51.980;5.848;2023-01-26T02:43:01;89.75;;;28.15;;
42018;SDS011;27703;51.980;5.848;2023-01-26T02:45:27;90.07;;;27.75;;
42018;SDS011;27703;51.980;5.848;2023-01-26T02:47:55;98.15;;;31.63;;
42018;SDS011;27703;51.980;5.848;2023-01-26T02:50:21;93.82;;;29.38;;
42018;SDS011;27703;51.980;5.848;2023-01-26T02:52:47;93.90;;;31.65;;
42018;SDS011;27703;51.980;5.848;2023-01-26T02:55:12;89.00;;;30.17;;
42018;SDS011;27703;51.980;5.848;2023-01-26T02:57:49;86.05;;;24.52;;
42018;SDS011;27703;51.980;5.848;2023-01-26T03:00:17;87.35;;;27.48;;
42018;SDS011;27703;51.980;5.848;2023-01-26T03:02:44;84.15;;;26.58;;
42018;SDS011;27703;51.980;5.848;2023-01-26T03:05:12;96.55;;;28.13;;
42018;SDS011;27703;51.980;5.848;2023-01-26T03:07:37;97.35;;;29.17;;
42018;SDS011;27703;51.980;5.848;2023-01-26T03:10:03;86.05;;;27.73;;
42018;SDS011;27703;51.980;5.848;2023-01-26T03:12:30;90.70;;;27.15;;
42018;SDS011;27703;51.980;5.848;2023-01-26T03:14:55;80.95;;;26.95;;
42018;SDS011;27703;51.980;5.848;2023-01-26T03:17:41;86.28;;;28.42;;
42018;SDS011;27703;51.980;5.848;2023-01-26T03:20:07;86.93;;;30.05;;
42018;SDS011;27703;51.980;5.848;2023-01-26T03:22:51;89.90;;;27.98;;
42018;SDS011;27703;51.980;5.848;2023-01-26T03:25:49;87.13;;;25.77;;
42018;SDS011;27703;51.980;5.848;2023-01-26T03:28:33;86.28;;;28.38;;
42018;SDS011;27703;51.980;5.848;2023-01-26T03:30:59;89.25;;;29.13;;
42018;SDS011;27703;51.980;5.848;2023-01-26T03:33:24;91.00;;;28.17;;
42018;SDS011;27703;51.980;5.848;2023-01-26T03:35:51;82.82;;;27.42;;
42018;SDS011;27703;51.980;5.848;2023-01-26T03:38:19;86.70;;;26.75;;
42018;SDS011;27703;51.980;5.848;2023-01-26T03:40:44;78.25;;;25.27;;
42018;SDS011;27703;51.980;5.848;2023-01-26T03:43:29;70.60;;;24.08;;
42018;SDS011;27703;51.980;5.848;2023-01-26T03:46:13;74.43;;;24.17;;
42018;SDS011;27703;51.980;5.848;2023-01-26T03:48:57;80.75;;;25.00;;
42018;SDS011;27703;51.980;5.848;2023-01-26T03:51:41;65.60;;;20.65;;
42018;SDS011;27703;51.980;5.848;2023-01-26T03:54:25;74.22;;;24.00;;
42018;SDS011;27703;51.980;5.848;2023-01-26T03:57:09;76.20;;;23.95;;
42018;SDS011;27703;51.980;5.848;2023-01-26T03:59:35;70.40;;;23.45;;
42018;SDS011;27703;51.980;5.848;2023-01-26T04:02:03;62.58;;;20.80;;
42018;SDS011;27703;51.980;5.848;2023-01-26T04:04:49;72.00;;;22.45;;
42018;SDS011;27703;51.980;5.848;2023-01-26T04:07:34;78.28;;;23.38;;
42018;SDS011;27703;51.980;5.848;2023-01-26T04:10:18;78.47;;;24.02;;
42018;SDS011;27703;51.980;5.848;2023-01-26T04:12:44;60.17;;;21.75;;
42018;SDS011;27703;51.980;5.848;2023-01-26T04:15:28;68.82;;;22.88;;
42018;SDS011;27703;51.980;5.848;2023-01-26T04:18:12;67.47;;;23.13;;
42018;SDS011;27703;51.980;5.848;2023-01-26T04:20:56;51.40;;;18.40;;
42018;SDS011;27703;51.980;5.848;2023-01-26T04:23:40;62.90;;;21.45;;
42018;SDS011;27703;51.980;5.848;2023-01-26T04:26:06;63.08;;;22.60;;
42018;SDS011;27703;51.980;5.848;2023-01-26T04:28:31;57.25;;;19.83;;
42018;SDS011;27703;51.980;5.848;2023-01-26T04:30:57;58.83;;;19.48;;
42018;SDS011;27703;51.980;5.848;2023-01-26T04:33:22;57.80;;;20.08;;
42018;SDS011;27703;51.980;5.848;2023-01-26T04:35:48;57.53;;;19.52;;
42018;SDS011;27703;51.980;5.848;2023-01-26T04:38:14;65.13;;;20.50;;
42018;SDS011;27703;51.980;5.848;2023-01-26T04:40:39;53.53;;;20.70;;
42018;SDS011;27703;51.980;5.848;2023-01-26T04:43:05;51.80;;;18.25;;
42018;SDS011;27703;51.980;5.848;2023-01-26T04:45:30;50.45;;;18.00;;
42018;SDS011;27703;51.980;5.848;2023-01-26T04:47:55;52.70;;;18.23;;
42018;SDS011;27703;51.980;5.848;2023-01-26T04:50:21;51.22;;;19.17;;
42018;SDS011;27703;51.980;5.848;2023-01-26T04:52:46;48.17;;;16.90;;
42018;SDS011;27703;51.980;5.848;2023-01-26T04:55:12;47.50;;;17.88;;
42018;SDS011;27703;51.980;5.848;2023-01-26T04:57:38;39.45;;;15.25;;
42018;SDS011;27703;51.980;5.848;2023-01-26T05:00:03;49.05;;;17.77;;
42018;SDS011;27703;51.980;5.848;2023-01-26T05:02:29;52.95;;;18.77;;
42018;SDS011;27703;51.980;5.848;2023-01-26T05:04:55;57.47;;;19.92;;
42018;SDS011;27703;51.980;5.848;2023-01-26T05:07:20;51.92;;;19.55;;
42018;SDS011;27703;51.980;5.848;2023-01-26T05:09:46;51.55;;;18.73;;
42018;SDS011;27703;51.980;5.848;2023-01-26T05:12:11;53.10;;;18.13;;
42018;SDS011;27703;51.980;5.848;2023-01-26T05:14:55;49.47;;;17.38;;
42018;SDS011;27703;51.980;5.848;2023-01-26T05:17:21;46.97;;;18.00;;
42018;SDS011;27703;51.980;5.848;2023-01-26T05:19:46;49.88;;;18.30;;
42018;SDS011;27703;51.980;5.848;2023-01-26T05:22:12;45.20;;;16.17;;
42018;SDS011;27703;51.980;5.848;2023-01-26T05:24:37;49.55;;;16.60;;
42018;SDS011;27703;51.980;5.848;2023-01-26T05:27:03;53.72;;;18.77;;
42018;SDS011;27703;51.980;5.848;2023-01-26T05:29:47;47.40;;;16.88;;
42018;SDS011;27703;51.980;5.848;2023-01-26T05:32:16;46.58;;;16.20;;
42018;SDS011;27703;51.980;5.848;2023-01-26T05:34:42;45.72;;;17.30;;
42018;SDS011;27703;51.980;5.848;2023-01-26T05:37:07;48.72;;;16.38;;
42018;SDS011;27703;51.980;5.848;2023-01-26T05:39:33;44.55;;;15.50;;
42018;SDS011;27703;51.980;5.848;2023-01-26T05:41:59;49.97;;;18.35;;
42018;SDS011;27703;51.980;5.848;2023-01-26T05:44:24;48.22;;;17.25;;
42018;SDS011;27703;51.980;5.848;2023-01-26T05:46:50;54.13;;;19.10;;
42018;SDS011;27703;51.980;5.848;2023-01-26T05:49:16;52.25;;;18.25;;
42018;SDS011;27703;51.980;5.848;2023-01-26T05:51:42;43.40;;;16.42;;
42018;SDS011;27703;51.980;5.848;2023-01-26T05:54:07;49.35;;;16.13;;
42018;SDS011;27703;51.980;5.848;2023-01-26T05:56:33;47.30;;;15.48;;
42018;SDS011;27703;51.980;5.848;2023-01-26T05:58:58;42.53;;;15.23;;
42018;SDS011;27703;51.980;5.848;2023-01-26T06:01:24;41.13;;;15.52;;
42018;SDS011;27703;51.980;5.848;2023-01-26T06:03:49;42.25;;;13.48;;
42018;SDS011;27703;51.980;5.848;2023-01-26T06:06:15;47.75;;;14.90;;
42018;SDS011;27703;51.980;5.848;2023-01-26T06:08:41;39.88;;;14.27;;
42018;SDS011;27703;51.980;5.848;2023-01-26T06:11:06;47.20;;;17.20;;
42018;SDS011;27703;51.980;5.848;2023-01-26T06:13:32;37.47;;;14.02;;
42018;SDS011;27703;51.980;5.848;2023-01-26T06:16:00;37.45;;;13.02;;
42018;SDS011;27703;51.980;5.848;2023-01-26T06:18:26;36.80;;;15.02;;
42018;SDS011;27703;51.980;5.848;2023-01-26T06:20:51;41.85;;;14.20;;
42018;SDS011;27703;51.980;5.848;2023-01-26T06:23:17;34.47;;;12.15;;
42018;SDS011;27703;51.980;5.848;2023-01-26T06:25:43;35.95;;;12.13;;
42018;SDS011;27703;51.980;5.848;2023-01-26T06:28:08;39.72;;;13.48;;
42018;SDS011;27703;51.980;5.848;2023-01-26T06:30:34;32.15;;;12.55;;
42018;SDS011;27703;51.980;5.848;2023-01-26T06:32:59;31.75;;;13.15;;
42018;SDS011;27703;51.980;5.848;2023-01-26T06:35:25;38.20;;;13.48;;
42018;SDS011;27703;51.980;5.848;2023-01-26T06:37:51;43.10;;;14.52;;
42018;SDS011;27703;51.980;5.848;2023-01-26T06:40:17;34.67;;;13.60;;
42018;SDS011;27703;51.980;5.848;2023-01-26T06:42:47;37.17;;;12.43;;
42018;SDS011;27703;51.980;5.848;2023-01-26T06:45:16;39.25;;;13.43;;
42018;SDS011;27703;51.980;5.848;2023-01-26T06:47:44;38.67;;;13.23;;
42018;SDS011;27703;51.980;5.848;2023-01-26T06:50:14;34.70;;;13.02;;
42018;SDS011;27703;51.980;5.848;2023-01-26T06:52:42;39.90;;;13.73;;
42018;SDS011;27703;51.980;5.848;2023-01-26T06:55:19;39.60;;;13.75;;
42018;SDS011;27703;51.980;5.848;2023-01-26T06:57:47;37.83;;;14.98;;
42018;SDS011;27703;51.980;5.848;2023-01-26T07:00:13;48.50;;;15.68;;
42018;SDS011;27703;51.980;5.848;2023-01-26T07:02:39;35.50;;;14.63;;
42018;SDS011;27703;51.980;5.848;2023-01-26T07:05:05;31.23;;;11.45;;
42018;SDS011;27703;51.980;5.848;2023-01-26T07:07:31;40.17;;;13.93;;
42018;SDS011;27703;51.980;5.848;2023-01-26T07:09:56;38.95;;;12.80;;
42018;SDS011;27703;51.980;5.848;2023-01-26T07:12:22;42.58;;;15.82;;
42018;SDS011;27703;51.980;5.848;2023-01-26T07:14:48;41.30;;;13.38;;
42018;SDS011;27703;51.980;5.848;2023-01-26T07:17:15;37.92;;;13.82;;
42018;SDS011;27703;51.980;5.848;2023-01-26T07:19:41;38.03;;;13.52;;
42018;SDS011;27703;51.980;5.848;2023-01-26T07:22:06;36.83;;;13.23;;
42018;SDS011;27703;51.980;5.848;2023-01-26T07:24:32;36.63;;;14.38;;
42018;SDS011;27703;51.980;5.848;2023-01-26T07:26:57;31.38;;;11.88;;
42018;SDS011;27703;51.980;5.848;2023-01-26T07:29:23;32.60;;;11.93;;
42018;SDS011;27703;51.980;5.848;2023-01-26T07:31:49;32.15;;;11.48;;
42018;SDS011;27703;51.980;5.848;2023-01-26T07:34:14;35.15;;;11.13;;
42018;SDS011;27703;51.980;5.848;2023-01-26T07:36:40;30.10;;;10.98;;
42018;SDS011;27703;51.980;5.848;2023-01-26T07:39:05;36.22;;;12.00;;
42018;SDS011;27703;51.980;5.848;2023-01-26T07:41:31;34.92;;;12.13;;
42018;SDS011;27703;51.980;5.848;2023-01-26T07:43:57;42.75;;;13.27;;
42018;SDS011;27703;51.980;5.848;2023-01-26T07:46:22;41.58;;;13.00;;
42018;SDS011;27703;51.980;5.848;2023-01-26T07:48:48;38.17;;;13.02;;
42018;SDS011;27703;51.980;5.848;2023-01-26T07:51:14;36.70;;;13.98;;
42018;SDS011;27703;51.980;5.848;2023-01-26T07:53:40;43.22;;;14.13;;
42018;SDS011;27703;51.980;5.848;2023-01-26T07:56:14;31.80;;;10.90;;
42018;SDS011;27703;51.980;5.848;2023-01-26T07:58:41;43.95;;;15.57;;
42018;SDS011;27703;51.980;5.848;2023-01-26T08:01:07;35.53;;;12.30;;
42018;SDS011;27703;51.980;5.848;2023-01-26T08:03:35;40.83;;;15.15;;
42018;SDS011;27703;51.980;5.848;2023-01-26T08:06:00;41.53;;;14.38;;
42018;SDS011;27703;51.980;5.848;2023-01-26T08:08:26;38.97;;;12.90;;
42018;SDS011;27703;51.980;5.848;2023-01-26T08:10:56;46.70;;;15.00;;
42018;SDS011;27703;51.980;5.848;2023-01-26T08:13:22;39.05;;;13.80;;
42018;SDS011;27703;51.980;5.848;2023-01-26T08:15:48;39.88;;;12.38;;
42018;SDS011;27703;51.980;5.848;2023-01-26T08:18:13;39.20;;;13.10;;
42018;SDS011;27703;51.980;5.848;2023-01-26T08:20:39;39.92;;;14.38;;
42018;SDS011;27703;51.980;5.848;2023-01-26T08:23:04;41.80;;;13.23;;
42018;SDS011;27703;51.980;5.848;2023-01-26T08:25:30;45.45;;;14.68;;
42018;SDS011;27703;51.980;5.848;2023-01-26T08:27:57;33.10;;;12.00;;
42018;SDS011;27703;51.980;5.848;2023-01-26T08:30:23;35.75;;;13.02;;
42018;SDS011;27703;51.980;5.848;2023-01-26T08:32:48;35.38;;;11.88;;
42018;SDS011;27703;51.980;5.848;2023-01-26T08:35:14;32.88;;;11.48;;
42018;SDS011;27703;51.980;5.848;2023-01-26T08:37:39;40.78;;;14.02;;
42018;SDS011;27703;51.980;5.848;2023-01-26T08:40:05;41.10;;;12.95;;
42018;SDS011;27703;51.980;5.848;2023-01-26T08:42:31;44.75;;;14.80;;
42018;SDS011;27703;51.980;5.848;2023-01-26T08:44:57;41.70;;;13.80;;
42018;SDS011;27703;51.980;5.848;2023-01-26T08:47:22;33.00;;;12.07;;
42018;SDS011;27703;51.980;5.848;2023-01-26T08:49:48;35.15;;;13.70;;
42018;SDS011;27703;51.980;5.848;2023-01-26T08:52:13;43.72;;;13.35;;
42018;SDS011;27703;51.980;5.848;2023-01-26T08:54:39;43.20;;;13.63;;
42018;SDS011;27703;51.980;5.848;2023-01-26T08:57:04;37.70;;;12.38;;
42018;SDS011;27703;51.980;5.848;2023-01-26T08:59:30;35.10;;;12.60;;
42018;SDS011;27703;51.980;5.848;2023-01-26T09:01:56;36.00;;;11.38;;
42018;SDS011;27703;51.980;5.848;2023-01-26T09:04:21;37.13;;;12.45;;
42018;SDS011;27703;51.980;5.848;2023-01-26T09:06:47;42.88;;;14.57;;
42018;SDS011;27703;51.980;5.848;2023-01-26T09:09:12;34.50;;;12.38;;
42018;SDS011;27703;51.980;5.848;2023-01-26T09:11:41;38.03;;;11.20;;
42018;SDS011;27703;51.980;5.848;2023-01-26T09:14:06;35.42;;;12.50;;
42018;SDS011;27703;51.980;5.848;2023-01-26T09:16:32;52.42;;;14.68;;
42018;SDS011;27703;51.980;5.848;2023-01-26T09:18:57;36.35;;;13.40;;
42018;SDS011;27703;51.980;5.848;2023-01-26T09:21:23;45.40;;;14.68;;
42018;SDS011;27703;51.980;5.848;2023-01-26T09:23:48;46.45;;;13.40;;
42018;SDS011;27703;51.980;5.848;2023-01-26T09:26:14;35.10;;;12.20;;
42018;SDS011;27703;51.980;5.848;2023-01-26T09:28:40;39.65;;;12.45;;
42018;SDS011;27703;51.980;5.848;2023-01-26T09:31:06;41.85;;;13.50;;
42018;SDS011;27703;51.980;5.848;2023-01-26T09:33:34;45.47;;;13.93;;
42018;SDS011;27703;51.980;5.848;2023-01-26T09:36:07;43.47;;;11.90;;
42018;SDS011;27703;51.980;5.848;2023-01-26T09:38:35;35.25;;;11.25;;
42018;SDS011;27703;51.980;5.848;2023-01-26T09:43:50;42.22;;;12.10;;
42018;SDS011;27703;51.980;5.848;2023-01-26T09:46:26;30.95;;;9.30;;
42018;SDS011;27703;51.980;5.848;2023-01-26T09:49:13;43.55;;;13.98;;
42018;SDS011;27703;51.980;5.848;2023-01-26T09:51:47;37.83;;;12.98;;
42018;SDS011;27703;51.980;5.848;2023-01-26T09:54:25;47.15;;;15.85;;
42018;SDS011;27703;51.980;5.848;2023-01-26T09:57:09;48.22;;;13.85;;
42018;SDS011;27703;51.980;5.848;2023-01-26T10:02:32;42.70;;;13.27;;
42018;SDS011;27703;51.980;5.848;2023-01-26T10:05:00;43.33;;;13.55;;
42018;SDS011;27703;51.980;5.848;2023-01-26T10:09:57;35.80;;;11.02;;
42018;SDS011;27703;51.980;5.848;2023-01-26T10:12:30;56.45;;;13.60;;
42018;SDS011;27703;51.980;5.848;2023-01-26T10:15:06;39.30;;;11.88;;
42018;SDS011;27703;51.980;5.848;2023-01-26T10:17:48;53.75;;;12.85;;
42018;SDS011;27703;51.980;5.848;2023-01-26T10:20:22;32.90;;;12.10;;
42018;SDS011;27703;51.980;5.848;2023-01-26T10:25:49;50.92;;;11.60;;
42018;SDS011;27703;51.980;5.848;2023-01-26T10:28:17;34.10;;;11.10;;
42018;SDS011;27703;51.980;5.848;2023-01-26T10:30:46;39.70;;;10.60;;
42018;SDS011;27703;51.980;5.848;2023-01-26T10:33:17;39.42;;;12.48;;
42018;SDS011;27703;51.980;5.848;2023-01-26T10:35:47;38.28;;;11.05;;
42018;SDS011;27703;51.980;5.848;2023-01-26T10:43:49;26.67;;;9.70;;
42018;SDS011;27703;51.980;5.848;2023-01-26T10:46:24;25.73;;;9.68;;
42018;SDS011;27703;51.980;5.848;2023-01-26T10:48:55;25.30;;;9.32;;
42018;SDS011;27703;51.980;5.848;2023-01-26T10:51:30;37.42;;;11.68;;
42018;SDS011;27703;51.980;5.848;2023-01-26T10:57:50;30.13;;;10.05;;
42018;SDS011;27703;51.980;5.848;2023-01-26T10:59:48;24.42;;;9.27;;
42018;SDS011;27703;51.980;5.848;2023-01-26T11:02:21;20.30;;;7.80;;
42018;SDS011;27703;51.980;5.848;2023-01-26T11:05:03;25.02;;;9.05;;
42018;SDS011;27703;51.980;5.848;2023-01-26T11:07:40;24.67;;;7.72;;
42018;SDS011;27703;51.980;5.848;2023-01-26T11:12:51;17.33;;;7.68;;
42018;SDS011;27703;51.980;5.848;2023-01-26T11:15:32;16.75;;;6.80;;
42018;SDS011;27703;51.980;5.848;2023-01-26T11:18:02;19.52;;;7.53;;
42018;SDS011;27703;51.980;5.848;2023-01-26T11:20:45;20.60;;;6.40;;
42018;SDS011;27703;51.980;5.848;2023-01-26T11:39:33;19.17;;;6.28;;
42018;SDS011;27703;51.980;5.848;2023-01-26T11:42:18;17.52;;;5.50;;
42018;SDS011;27703;51.980;5.848;2023-01-26T11:45:03;21.13;;;6.25;;
42018;SDS011;27703;51.980;5.848;2023-01-26T11:53:32;19.70;;;5.97;;
42018;SDS011;27703;51.980;5.848;2023-01-26T12:01:10;13.68;;;4.90;;
42018;SDS011;27703;51.980;5.848;2023-01-26T12:06:15;16.58;;;4.78;;
42018;SDS011;27703;51.980;5.848;2023-01-26T12:08:44;17.55;;;4.80;;
42018;SDS011;27703;51.980;5.848;2023-01-26T12:11:18;14.13;;;4.40;;
42018;SDS011;27703;51.980;5.848;2023-01-26T12:16:27;28.92;;;5.35;;
42018;SDS011;27703;51.980;5.848;2023-01-26T12:19:04;13.95;;;3.95;;
42018;SDS011;27703;51.980;5.848;2023-01-26T12:21:37;17.52;;;4.75;;
42018;SDS011;27703;51.980;5.848;2023-01-26T12:24:09;16.27;;;4.07;;
42018;SDS011;27703;51.980;5.848;2023-01-26T12:26:44;18.27;;;4.32;;
42018;SDS011;27703;51.980;5.848;2023-01-26T12:31:55;17.13;;;3.65;;
42018;SDS011;27703;51.980;5.848;2023-01-26T12:34:28;20.73;;;3.40;;
42018;SDS011;27703;51.980;5.848;2023-01-26T12:39:47;19.08;;;3.15;;
42018;SDS011;27703;51.980;5.848;2023-01-26T12:45:24;17.15;;;2.85;;
42018;SDS011;27703;51.980;5.848;2023-01-26T12:56:05;18.45;;;2.60;;
42018;SDS011;27703;51.980;5.848;2023-01-26T12:58:44;11.98;;;1.58;;
42018;SDS011;27703;51.980;5.848;2023-01-26T13:01:19;13.88;;;2.05;;
42018;SDS011;27703;51.980;5.848;2023-01-26T13:06:23;13.40;;;1.20;;
42018;SDS011;27703;51.980;5.848;2023-01-26T13:09:00;12.10;;;1.23;;
42018;SDS011;27703;51.980;5.848;2023-01-26T13:25:27;11.80;;;1.23;;
42018;SDS011;27703;51.980;5.848;2023-01-26T13:27:43;14.60;;;1.42;;
42018;SDS011;27703;51.980;5.848;2023-01-26T13:35:23;8.00;;;0.90;;
42018;SDS011;27703;51.980;5.848;2023-01-26T13:40:32;8.30;;;0.70;;
42018;SDS011;27703;51.980;5.848;2023-01-26T13:46:09;8.63;;;0.93;;
42018;SDS011;27703;51.980;5.848;2023-01-26T13:48:58;9.93;;;1.23;;
42018;SDS011;27703;51.980;5.848;2023-01-26T13:51:26;6.38;;;0.50;;
42018;SDS011;27703;51.980;5.848;2023-01-26T13:56:24;9.15;;;0.40;;
42018;SDS011;27703;51.980;5.848;2023-01-26T14:01:46;7.80;;;0.63;;
42018;SDS011;27703;51.980;5.848;2023-01-26T14:04:16;7.65;;;0.50;;
42018;SDS011;27703;51.980;5.848;2023-01-26T14:06:47;6.05;;;0.47;;
42018;SDS011;27703;51.980;5.848;2023-01-26T14:09:20;13.85;;;0.80;;
42018;SDS011;27703;51.980;5.848;2023-01-26T14:11:54;8.05;;;0.40;;
42018;SDS011;27703;51.980;5.848;2023-01-26T14:14:28;8.50;;;0.68;;
42018;SDS011;27703;51.980;5.848;2023-01-26T14:16:57;7.72;;;0.60;;
42018;SDS011;27703;51.980;5.848;2023-01-26T14:19:24;5.97;;;0.40;;
42018;SDS011;27703;51.980;5.848;2023-01-26T14:21:52;5.95;;;0.30;;
42018;SDS011;27703;51.980;5.848;2023-01-26T14:24:33;7.40;;;0.73;;
42018;SDS011;27703;51.980;5.848;2023-01-26T14:27:00;4.15;;;0.55;;
42018;SDS011;27703;51.980;5.848;2023-01-26T14:29:28;5.05;;;0.40;;
42018;SDS011;27703;51.980;5.848;2023-01-26T14:31:58;7.75;;;0.40;;
42018;SDS011;27703;51.980;5.848;2023-01-26T14:34:28;9.68;;;0.45;;
42018;SDS011;27703;51.980;5.848;2023-01-26T14:37:11;7.97;;;0.63;;
42018;SDS011;27703;51.980;5.848;2023-01-26T14:39:38;4.43;;;0.28;;
42018;SDS011;27703;51.980;5.848;2023-01-26T14:42:07;5.85;;;0.30;;
42018;SDS011;27703;51.980;5.848;2023-01-26T14:44:39;3.10;;;0.22;;
42018;SDS011;27703;51.980;5.848;2023-01-26T14:47:24;3.78;;;0.20;;
42018;SDS011;27703;51.980;5.848;2023-01-26T14:50:01;5.50;;;0.25;;
42018;SDS011;27703;51.980;5.848;2023-01-26T14:52:33;1.38;;;0.10;;
42018;SDS011;27703;51.980;5.848;2023-01-26T14:55:05;2.78;;;0.20;;
42018;SDS011;27703;51.980;5.848;2023-01-26T14:57:45;6.00;;;0.30;;
42018;SDS011;27703;51.980;5.848;2023-01-26T15:00:27;4.05;;;0.63;;
42018;SDS011;27703;51.980;5.848;2023-01-26T15:02:58;4.57;;;0.20;;
42018;SDS011;27703;51.980;5.848;2023-01-26T15:05:35;9.43;;;0.32;;
42018;SDS011;27703;51.980;5.848;2023-01-26T15:08:03;3.47;;;0.20;;
42018;SDS011;27703;51.980;5.848;2023-01-26T15:10:42;5.03;;;0.25;;
42018;SDS011;27703;51.980;5.848;2023-01-26T15:13:47;6.03;;;0.40;;
42018;SDS011;27703;51.980;5.848;2023-01-26T15:16:24;4.47;;;0.40;;
42018;SDS011;27703;51.980;5.848;2023-01-26T15:18:57;8.57;;;0.20;;
42018;SDS011;27703;51.980;5.848;2023-01-26T15:21:34;6.20;;;0.35;;
42018;SDS011;27703;51.980;5.848;2023-01-26T15:24:04;6.50;;;0.30;;
42018;SDS011;27703;51.980;5.848;2023-01-26T15:26:31;7.43;;;0.20;;
42018;SDS011;27703;51.980;5.848;2023-01-26T15:28:59;6.50;;;0.30;;
42018;SDS011;27703;51.980;5.848;2023-01-26T15:31:29;4.00;;;0.40;;
42018;SDS011;27703;51.980;5.848;2023-01-26T15:33:58;1.88;;;0.30;;
42018;SDS011;27703;51.980;5.848;2023-01-26T15:41:28;3.55;;;0.25;;
42018;SDS011;27703;51.980;5.848;2023-01-26T15:43:54;2.08;;;0.20;;
42018;SDS011;27703;51.980;5.848;2023-01-26T15:46:20;5.30;;;0.35;;
42018;SDS011;27703;51.980;5.848;2023-01-26T15:48:46;5.63;;;0.40;;
42018;SDS011;27703;51.980;5.848;2023-01-26T15:51:12;4.82;;;0.30;;
42018;SDS011;27703;51.980;5.848;2023-01-26T15:53:38;2.53;;;0.20;;
42018;SDS011;27703;51.980;5.848;2023-01-26T15:56:04;4.10;;;0.35;;
42018;SDS011;27703;51.980;5.848;2023-01-26T15:58:30;4.72;;;0.30;;
42018;SDS011;27703;51.980;5.848;2023-01-26T16:00:59;4.72;;;0.32;;
42018;SDS011;27703;51.980;5.848;2023-01-26T16:03:25;5.57;;;0.30;;
42018;SDS011;27703;51.980;5.848;2023-01-26T16:05:50;6.15;;;0.65;;
42018;SDS011;27703;51.980;5.848;2023-01-26T16:08:16;5.25;;;0.40;;
42018;SDS011;27703;51.980;5.848;2023-01-26T16:10:43;5.60;;;0.70;;
42018;SDS011;27703;51.980;5.848;2023-01-26T16:13:16;5.47;;;0.50;;
42018;SDS011;27703;51.980;5.848;2023-01-26T16:15:44;4.07;;;0.30;;
42018;SDS011;27703;51.980;5.848;2023-01-26T16:18:14;4.18;;;0.65;;
42018;SDS011;27703;51.980;5.848;2023-01-26T16:20:41;3.30;;;0.47;;
42018;SDS011;27703;51.980;5.848;2023-01-26T16:23:14;7.80;;;0.40;;
42018;SDS011;27703;51.980;5.848;2023-01-26T16:25:49;5.65;;;0.63;;
42018;SDS011;27703;51.980;5.848;2023-01-26T16:28:16;1.42;;;0.30;;
42018;SDS011;27703;51.980;5.848;2023-01-26T16:30:42;2.97;;;0.20;;
42018;SDS011;27703;51.980;5.848;2023-01-26T16:33:12;4.50;;;0.77;;
42018;SDS011;27703;51.980;5.848;2023-01-26T16:35:39;3.35;;;0.30;;
42018;SDS011;27703;51.980;5.848;2023-01-26T16:38:05;2.35;;;0.55;;